sensor_id;sensor_type;location;lat;lon;timestamp;P1;durP1;ratioP1;P2;durP2;ratioP2
17175;SDS011;8703;48.996;9.594;2023-05-03T00:00:10;3.67;;;2.33;;
17175;SDS011;8703;48.996;9.594;2023-05-03T00:02:40;8.90;;;2.20;;
17175;SDS011;8703;48.996;9.594;2023-05-03T00:05:09;4.37;;;2.60;;
17175;SDS011;8703;48.996;9.594;2023-05-03T00:07:38;5.90;;;2.17;;
17175;SDS011;8703;48.996;9.594;2023-05-03T00:10:07;4.70;;;2.30;;
17175;SDS011;8703;48.996;9.594;2023-05-03T00:12:37;3.87;;;2.53;;
17175;SDS011;8703;48.996;9.594;2023-05-03T00:15:05;6.07;;;3.50;;
17175;SDS011;8703;48.996;9.594;2023-05-03T00:17:35;4.97;;;3.70;;
17175;SDS011;8703;48.996;9.594;2023-05-03T00:20:02;4.07;;;2.90;;
17175;SDS011;8703;48.996;9.594;2023-05-03T00:22:32;7.27;;;3.77;;
17175;SDS011;8703;48.996;9.594;2023-05-03T00:24:59;7.37;;;3.23;;
17175;SDS011;8703;48.996;9.594;2023-05-03T00:27:27;5.53;;;3.20;;
17175;SDS011;8703;48.996;9.594;2023-05-03T00:29:54;6.53;;;3.47;;
17175;SDS011;8703;48.996;9.594;2023-05-03T00:32:21;8.73;;;3.03;;
17175;SDS011;8703;48.996;9.594;2023-05-03T00:34:52;3.97;;;2.97;;
17175;SDS011;8703;48.996;9.594;2023-05-03T00:37:20;4.77;;;3.40;;
17175;SDS011;8703;48.996;9.594;2023-05-03T00:39:47;5.60;;;3.60;;
17175;SDS011;8703;48.996;9.594;2023-05-03T00:42:15;8.50;;;3.70;;
17175;SDS011;8703;48.996;9.594;2023-05-03T00:44:42;6.70;;;3.40;;
17175;SDS011;8703;48.996;9.594;2023-05-03T00:47:10;3.87;;;3.17;;
17175;SDS011;8703;48.996;9.594;2023-05-03T00:49:37;5.23;;;3.40;;
17175;SDS011;8703;48.996;9.594;2023-05-03T00:52:06;3.97;;;3.17;;
17175;SDS011;8703;48.996;9.594;2023-05-03T00:54:34;5.57;;;3.50;;
17175;SDS011;8703;48.996;9.594;2023-05-03T00:57:02;5.33;;;3.40;;
17175;SDS011;8703;48.996;9.594;2023-05-03T00:59:31;4.90;;;3.43;;
17175;SDS011;8703;48.996;9.594;2023-05-03T01:01:58;5.47;;;3.10;;
17175;SDS011;8703;48.996;9.594;2023-05-03T01:04:26;5.97;;;2.97;;
17175;SDS011;8703;48.996;9.594;2023-05-03T01:06:56;6.27;;;3.30;;
17175;SDS011;8703;48.996;9.594;2023-05-03T01:09:31;5.17;;;3.37;;
17175;SDS011;8703;48.996;9.594;2023-05-03T01:12:11;5.40;;;3.37;;
17175;SDS011;8703;48.996;9.594;2023-05-03T01:14:45;4.33;;;3.37;;
17175;SDS011;8703;48.996;9.594;2023-05-03T01:17:18;6.83;;;3.43;;
17175;SDS011;8703;48.996;9.594;2023-05-03T01:19:53;6.03;;;3.80;;
17175;SDS011;8703;48.996;9.594;2023-05-03T01:22:25;5.23;;;3.50;;
17175;SDS011;8703;48.996;9.594;2023-05-03T01:25:00;6.23;;;3.60;;
17175;SDS011;8703;48.996;9.594;2023-05-03T01:27:31;7.90;;;4.33;;
17175;SDS011;8703;48.996;9.594;2023-05-03T01:29:58;7.97;;;4.10;;
17175;SDS011;8703;48.996;9.594;2023-05-03T01:32:29;9.30;;;4.00;;
17175;SDS011;8703;48.996;9.594;2023-05-03T01:35:03;5.87;;;4.13;;
17175;SDS011;8703;48.996;9.594;2023-05-03T01:37:33;10.80;;;3.90;;
17175;SDS011;8703;48.996;9.594;2023-05-03T01:40:03;7.07;;;4.17;;
17175;SDS011;8703;48.996;9.594;2023-05-03T01:42:31;5.63;;;3.90;;
17175;SDS011;8703;48.996;9.594;2023-05-03T01:45:00;5.07;;;3.77;;
17175;SDS011;8703;48.996;9.594;2023-05-03T01:47:28;6.13;;;3.60;;
17175;SDS011;8703;48.996;9.594;2023-05-03T01:49:56;7.30;;;3.90;;
17175;SDS011;8703;48.996;9.594;2023-05-03T01:52:23;6.40;;;3.73;;
17175;SDS011;8703;48.996;9.594;2023-05-03T01:54:50;6.93;;;3.57;;
17175;SDS011;8703;48.996;9.594;2023-05-03T01:57:19;7.67;;;4.00;;
17175;SDS011;8703;48.996;9.594;2023-05-03T01:59:46;7.50;;;3.93;;
17175;SDS011;8703;48.996;9.594;2023-05-03T02:02:14;7.37;;;3.97;;
17175;SDS011;8703;48.996;9.594;2023-05-03T02:04:41;4.77;;;3.60;;
17175;SDS011;8703;48.996;9.594;2023-05-03T02:07:08;7.13;;;4.00;;
17175;SDS011;8703;48.996;9.594;2023-05-03T02:09:36;6.03;;;4.10;;
17175;SDS011;8703;48.996;9.594;2023-05-03T02:12:03;7.67;;;4.60;;
17175;SDS011;8703;48.996;9.594;2023-05-03T02:14:32;8.80;;;4.43;;
17175;SDS011;8703;48.996;9.594;2023-05-03T02:16:59;8.60;;;4.60;;
17175;SDS011;8703;48.996;9.594;2023-05-03T02:19:27;7.57;;;4.50;;
17175;SDS011;8703;48.996;9.594;2023-05-03T02:21:55;8.77;;;4.53;;
17175;SDS011;8703;48.996;9.594;2023-05-03T02:24:22;9.27;;;4.73;;
17175;SDS011;8703;48.996;9.594;2023-05-03T02:26:50;10.60;;;5.20;;
17175;SDS011;8703;48.996;9.594;2023-05-03T02:29:17;7.77;;;4.77;;
17175;SDS011;8703;48.996;9.594;2023-05-03T02:31:46;8.27;;;4.73;;
17175;SDS011;8703;48.996;9.594;2023-05-03T02:34:13;11.83;;;5.17;;
17175;SDS011;8703;48.996;9.594;2023-05-03T02:36:40;9.50;;;4.80;;
17175;SDS011;8703;48.996;9.594;2023-05-03T02:39:08;8.90;;;4.87;;
17175;SDS011;8703;48.996;9.594;2023-05-03T02:41:35;7.93;;;4.83;;
17175;SDS011;8703;48.996;9.594;2023-05-03T02:44:03;11.27;;;5.73;;
17175;SDS011;8703;48.996;9.594;2023-05-03T02:46:30;8.80;;;5.53;;
17175;SDS011;8703;48.996;9.594;2023-05-03T02:48:59;8.97;;;5.27;;
17175;SDS011;8703;48.996;9.594;2023-05-03T02:51:26;8.13;;;5.37;;
17175;SDS011;8703;48.996;9.594;2023-05-03T02:53:53;8.43;;;5.70;;
17175;SDS011;8703;48.996;9.594;2023-05-03T02:56:21;8.93;;;5.50;;
17175;SDS011;8703;48.996;9.594;2023-05-03T02:58:50;12.07;;;6.50;;
17175;SDS011;8703;48.996;9.594;2023-05-03T03:01:17;12.53;;;6.57;;
17175;SDS011;8703;48.996;9.594;2023-05-03T03:03:45;10.23;;;5.97;;
17175;SDS011;8703;48.996;9.594;2023-05-03T03:06:14;8.57;;;5.87;;
17175;SDS011;8703;48.996;9.594;2023-05-03T03:08:41;13.67;;;6.30;;
17175;SDS011;8703;48.996;9.594;2023-05-03T03:11:14;10.27;;;7.00;;
17175;SDS011;8703;48.996;9.594;2023-05-03T03:13:41;11.97;;;6.83;;
17175;SDS011;8703;48.996;9.594;2023-05-03T03:16:09;21.17;;;11.93;;
17175;SDS011;8703;48.996;9.594;2023-05-03T03:18:37;16.67;;;10.43;;
17175;SDS011;8703;48.996;9.594;2023-05-03T03:21:04;13.80;;;8.20;;
17175;SDS011;8703;48.996;9.594;2023-05-03T03:23:33;13.33;;;8.40;;
17175;SDS011;8703;48.996;9.594;2023-05-03T03:26:00;15.03;;;7.20;;
17175;SDS011;8703;48.996;9.594;2023-05-03T03:28:28;11.60;;;6.70;;
17175;SDS011;8703;48.996;9.594;2023-05-03T03:30:55;13.87;;;7.90;;
17175;SDS011;8703;48.996;9.594;2023-05-03T03:33:23;15.80;;;8.17;;
17175;SDS011;8703;48.996;9.594;2023-05-03T03:35:50;13.40;;;6.67;;
17175;SDS011;8703;48.996;9.594;2023-05-03T03:38:17;11.07;;;6.67;;
17175;SDS011;8703;48.996;9.594;2023-05-03T03:40:46;12.53;;;6.43;;
17175;SDS011;8703;48.996;9.594;2023-05-03T03:43:14;10.77;;;6.47;;
17175;SDS011;8703;48.996;9.594;2023-05-03T03:45:41;11.20;;;7.50;;
17175;SDS011;8703;48.996;9.594;2023-05-03T03:48:08;13.97;;;9.13;;
17175;SDS011;8703;48.996;9.594;2023-05-03T03:50:36;13.67;;;6.97;;
17175;SDS011;8703;48.996;9.594;2023-05-03T03:53:03;11.10;;;6.90;;
17175;SDS011;8703;48.996;9.594;2023-05-03T03:55:31;13.13;;;5.93;;
17175;SDS011;8703;48.996;9.594;2023-05-03T03:57:59;12.30;;;6.23;;
17175;SDS011;8703;48.996;9.594;2023-05-03T04:00:26;11.03;;;6.57;;
17175;SDS011;8703;48.996;9.594;2023-05-03T04:02:54;12.10;;;6.97;;
17175;SDS011;8703;48.996;9.594;2023-05-03T04:05:21;10.60;;;7.07;;
17175;SDS011;8703;48.996;9.594;2023-05-03T04:07:49;13.30;;;6.83;;
17175;SDS011;8703;48.996;9.594;2023-05-03T04:10:16;13.23;;;7.63;;
17175;SDS011;8703;48.996;9.594;2023-05-03T04:12:43;13.60;;;6.33;;
17175;SDS011;8703;48.996;9.594;2023-05-03T04:15:12;10.80;;;6.60;;
17175;SDS011;8703;48.996;9.594;2023-05-03T04:17:39;13.00;;;6.73;;
17175;SDS011;8703;48.996;9.594;2023-05-03T04:20:07;12.10;;;6.70;;
17175;SDS011;8703;48.996;9.594;2023-05-03T04:22:36;11.10;;;6.60;;
17175;SDS011;8703;48.996;9.594;2023-05-03T04:25:04;12.23;;;7.03;;
17175;SDS011;8703;48.996;9.594;2023-05-03T04:27:33;12.10;;;7.03;;
17175;SDS011;8703;48.996;9.594;2023-05-03T04:30:00;16.43;;;7.20;;
17175;SDS011;8703;48.996;9.594;2023-05-03T04:32:29;14.23;;;6.93;;
17175;SDS011;8703;48.996;9.594;2023-05-03T04:35:01;13.30;;;7.90;;
17175;SDS011;8703;48.996;9.594;2023-05-03T04:37:32;12.67;;;8.33;;
17175;SDS011;8703;48.996;9.594;2023-05-03T04:39:59;14.53;;;7.90;;
17175;SDS011;8703;48.996;9.594;2023-05-03T04:42:28;16.07;;;9.20;;
17175;SDS011;8703;48.996;9.594;2023-05-03T04:44:56;17.70;;;10.30;;
17175;SDS011;8703;48.996;9.594;2023-05-03T04:47:23;20.13;;;9.17;;
17175;SDS011;8703;48.996;9.594;2023-05-03T04:49:52;14.07;;;9.10;;
17175;SDS011;8703;48.996;9.594;2023-05-03T04:52:19;15.90;;;8.23;;
17175;SDS011;8703;48.996;9.594;2023-05-03T04:54:46;19.40;;;8.63;;
17175;SDS011;8703;48.996;9.594;2023-05-03T04:57:14;13.90;;;8.13;;
17175;SDS011;8703;48.996;9.594;2023-05-03T04:59:41;12.90;;;8.03;;
17175;SDS011;8703;48.996;9.594;2023-05-03T05:02:09;13.47;;;8.10;;
17175;SDS011;8703;48.996;9.594;2023-05-03T05:04:36;17.23;;;8.77;;
17175;SDS011;8703;48.996;9.594;2023-05-03T05:07:05;17.30;;;8.77;;
17175;SDS011;8703;48.996;9.594;2023-05-03T05:09:32;17.87;;;8.70;;
17175;SDS011;8703;48.996;9.594;2023-05-03T05:12:00;24.60;;;13.43;;
17175;SDS011;8703;48.996;9.594;2023-05-03T05:14:28;25.17;;;13.37;;
17175;SDS011;8703;48.996;9.594;2023-05-03T05:16:56;20.20;;;11.17;;
17175;SDS011;8703;48.996;9.594;2023-05-03T05:19:23;20.57;;;10.30;;
17175;SDS011;8703;48.996;9.594;2023-05-03T05:21:51;20.80;;;10.47;;
17175;SDS011;8703;48.996;9.594;2023-05-03T05:24:20;17.90;;;9.53;;
17175;SDS011;8703;48.996;9.594;2023-05-03T05:26:47;23.80;;;10.93;;
17175;SDS011;8703;48.996;9.594;2023-05-03T05:29:14;21.70;;;10.40;;
17175;SDS011;8703;48.996;9.594;2023-05-03T05:31:42;24.70;;;11.17;;
17175;SDS011;8703;48.996;9.594;2023-05-03T05:34:09;20.63;;;11.33;;
17175;SDS011;8703;48.996;9.594;2023-05-03T05:36:36;31.27;;;16.57;;
17175;SDS011;8703;48.996;9.594;2023-05-03T05:39:04;33.97;;;16.63;;
17175;SDS011;8703;48.996;9.594;2023-05-03T05:41:33;27.30;;;15.77;;
17175;SDS011;8703;48.996;9.594;2023-05-03T05:44:00;28.20;;;14.87;;
17175;SDS011;8703;48.996;9.594;2023-05-03T05:46:27;35.10;;;14.67;;
17175;SDS011;8703;48.996;9.594;2023-05-03T05:48:55;27.43;;;13.37;;
17175;SDS011;8703;48.996;9.594;2023-05-03T05:51:22;27.40;;;14.20;;
17175;SDS011;8703;48.996;9.594;2023-05-03T05:53:50;33.27;;;15.20;;
17175;SDS011;8703;48.996;9.594;2023-05-03T05:56:18;27.93;;;13.43;;
17175;SDS011;8703;48.996;9.594;2023-05-03T05:58:47;27.90;;;13.07;;
17175;SDS011;8703;48.996;9.594;2023-05-03T06:01:14;34.00;;;15.13;;
17175;SDS011;8703;48.996;9.594;2023-05-03T06:03:41;29.47;;;14.80;;
17175;SDS011;8703;48.996;9.594;2023-05-03T06:06:09;30.50;;;14.23;;
17175;SDS011;8703;48.996;9.594;2023-05-03T06:08:39;33.40;;;15.10;;
17175;SDS011;8703;48.996;9.594;2023-05-03T06:11:06;30.73;;;14.60;;
17175;SDS011;8703;48.996;9.594;2023-05-03T06:13:38;30.53;;;14.57;;
17175;SDS011;8703;48.996;9.594;2023-05-03T06:16:07;24.83;;;13.67;;
17175;SDS011;8703;48.996;9.594;2023-05-03T06:18:35;25.87;;;13.27;;
17175;SDS011;8703;48.996;9.594;2023-05-03T06:21:03;27.97;;;12.47;;
17175;SDS011;8703;48.996;9.594;2023-05-03T06:23:30;23.10;;;12.73;;
17175;SDS011;8703;48.996;9.594;2023-05-03T06:25:59;23.43;;;12.00;;
17175;SDS011;8703;48.996;9.594;2023-05-03T06:28:26;23.83;;;12.47;;
17175;SDS011;8703;48.996;9.594;2023-05-03T06:30:53;22.70;;;12.50;;
17175;SDS011;8703;48.996;9.594;2023-05-03T06:33:22;25.63;;;12.33;;
17175;SDS011;8703;48.996;9.594;2023-05-03T06:35:50;23.23;;;12.30;;
17175;SDS011;8703;48.996;9.594;2023-05-03T06:38:18;21.30;;;11.70;;
17175;SDS011;8703;48.996;9.594;2023-05-03T06:40:45;17.23;;;11.27;;
17175;SDS011;8703;48.996;9.594;2023-05-03T06:43:14;22.67;;;11.20;;
17175;SDS011;8703;48.996;9.594;2023-05-03T06:45:41;21.90;;;11.73;;
17175;SDS011;8703;48.996;9.594;2023-05-03T06:48:09;20.13;;;11.57;;
17175;SDS011;8703;48.996;9.594;2023-05-03T06:50:38;20.20;;;11.27;;
17175;SDS011;8703;48.996;9.594;2023-05-03T06:53:05;19.20;;;11.77;;
17175;SDS011;8703;48.996;9.594;2023-05-03T06:55:32;17.77;;;11.50;;
17175;SDS011;8703;48.996;9.594;2023-05-03T06:58:00;20.37;;;12.13;;
17175;SDS011;8703;48.996;9.594;2023-05-03T07:00:27;20.90;;;12.17;;
17175;SDS011;8703;48.996;9.594;2023-05-03T07:02:54;16.50;;;10.53;;
17175;SDS011;8703;48.996;9.594;2023-05-03T07:05:22;19.90;;;11.23;;
17175;SDS011;8703;48.996;9.594;2023-05-03T07:07:50;18.97;;;10.97;;
17175;SDS011;8703;48.996;9.594;2023-05-03T07:10:18;18.47;;;11.33;;
17175;SDS011;8703;48.996;9.594;2023-05-03T07:12:45;16.93;;;10.93;;
17175;SDS011;8703;48.996;9.594;2023-05-03T07:15:12;18.30;;;10.60;;
17175;SDS011;8703;48.996;9.594;2023-05-03T07:17:40;15.57;;;10.23;;
17175;SDS011;8703;48.996;9.594;2023-05-03T07:20:07;15.47;;;10.37;;
17175;SDS011;8703;48.996;9.594;2023-05-03T07:22:35;18.67;;;10.67;;
17175;SDS011;8703;48.996;9.594;2023-05-03T07:25:04;15.97;;;10.77;;
17175;SDS011;8703;48.996;9.594;2023-05-03T07:27:32;17.80;;;10.20;;
17175;SDS011;8703;48.996;9.594;2023-05-03T07:30:00;17.23;;;10.27;;
17175;SDS011;8703;48.996;9.594;2023-05-03T07:32:28;17.80;;;10.70;;
17175;SDS011;8703;48.996;9.594;2023-05-03T07:34:57;16.27;;;10.10;;
17175;SDS011;8703;48.996;9.594;2023-05-03T07:37:24;15.47;;;9.70;;
17175;SDS011;8703;48.996;9.594;2023-05-03T07:39:52;13.97;;;9.30;;
17175;SDS011;8703;48.996;9.594;2023-05-03T07:42:20;14.27;;;9.40;;
17175;SDS011;8703;48.996;9.594;2023-05-03T07:44:48;14.53;;;10.10;;
17175;SDS011;8703;48.996;9.594;2023-05-03T07:47:16;15.57;;;9.47;;
17175;SDS011;8703;48.996;9.594;2023-05-03T07:49:43;15.90;;;9.73;;
17175;SDS011;8703;48.996;9.594;2023-05-03T07:52:11;13.30;;;8.93;;
17175;SDS011;8703;48.996;9.594;2023-05-03T07:54:39;16.07;;;9.90;;
17175;SDS011;8703;48.996;9.594;2023-05-03T07:57:07;16.37;;;9.60;;
17175;SDS011;8703;48.996;9.594;2023-05-03T07:59:36;12.77;;;9.20;;
17175;SDS011;8703;48.996;9.594;2023-05-03T08:02:03;12.03;;;9.00;;
17175;SDS011;8703;48.996;9.594;2023-05-03T08:04:31;15.00;;;9.77;;
17175;SDS011;8703;48.996;9.594;2023-05-03T08:06:59;12.53;;;9.13;;
17175;SDS011;8703;48.996;9.594;2023-05-03T08:09:27;14.77;;;10.60;;
17175;SDS011;8703;48.996;9.594;2023-05-03T08:11:54;14.23;;;9.73;;
17175;SDS011;8703;48.996;9.594;2023-05-03T08:14:22;16.23;;;9.93;;
17175;SDS011;8703;48.996;9.594;2023-05-03T08:16:51;14.37;;;10.00;;
17175;SDS011;8703;48.996;9.594;2023-05-03T08:19:18;15.93;;;9.80;;
17175;SDS011;8703;48.996;9.594;2023-05-03T08:21:45;13.40;;;10.53;;
17175;SDS011;8703;48.996;9.594;2023-05-03T08:24:13;12.17;;;9.57;;
17175;SDS011;8703;48.996;9.594;2023-05-03T08:26:40;14.00;;;10.10;;
17175;SDS011;8703;48.996;9.594;2023-05-03T08:29:10;13.53;;;9.43;;
17175;SDS011;8703;48.996;9.594;2023-05-03T08:31:38;13.27;;;9.80;;
17175;SDS011;8703;48.996;9.594;2023-05-03T08:34:07;13.57;;;9.93;;
17175;SDS011;8703;48.996;9.594;2023-05-03T08:36:35;13.27;;;10.10;;
17175;SDS011;8703;48.996;9.594;2023-05-03T08:39:03;14.33;;;10.40;;
17175;SDS011;8703;48.996;9.594;2023-05-03T08:41:31;11.90;;;9.30;;
17175;SDS011;8703;48.996;9.594;2023-05-03T08:43:59;19.40;;;10.17;;
17175;SDS011;8703;48.996;9.594;2023-05-03T08:46:28;11.77;;;9.70;;
17175;SDS011;8703;48.996;9.594;2023-05-03T08:48:55;15.03;;;10.17;;
17175;SDS011;8703;48.996;9.594;2023-05-03T08:51:24;12.53;;;10.10;;
17175;SDS011;8703;48.996;9.594;2023-05-03T08:53:52;12.77;;;10.20;;
17175;SDS011;8703;48.996;9.594;2023-05-03T08:56:22;12.07;;;9.67;;
17175;SDS011;8703;48.996;9.594;2023-05-03T08:58:51;11.57;;;8.57;;
17175;SDS011;8703;48.996;9.594;2023-05-03T09:01:18;13.83;;;8.97;;
17175;SDS011;8703;48.996;9.594;2023-05-03T09:03:48;12.77;;;8.73;;
17175;SDS011;8703;48.996;9.594;2023-05-03T09:06:19;11.00;;;9.20;;
17175;SDS011;8703;48.996;9.594;2023-05-03T09:08:51;12.23;;;9.53;;
17175;SDS011;8703;48.996;9.594;2023-05-03T09:11:19;9.97;;;8.97;;
17175;SDS011;8703;48.996;9.594;2023-05-03T09:13:47;12.00;;;9.10;;
17175;SDS011;8703;48.996;9.594;2023-05-03T09:16:20;12.03;;;9.93;;
17175;SDS011;8703;48.996;9.594;2023-05-03T09:18:57;9.63;;;8.63;;
17175;SDS011;8703;48.996;9.594;2023-05-03T09:21:25;10.37;;;8.53;;
17175;SDS011;8703;48.996;9.594;2023-05-03T09:23:54;10.87;;;8.73;;
17175;SDS011;8703;48.996;9.594;2023-05-03T09:26:32;11.27;;;8.93;;
17175;SDS011;8703;48.996;9.594;2023-05-03T09:29:01;10.40;;;8.30;;
17175;SDS011;8703;48.996;9.594;2023-05-03T09:31:32;13.33;;;9.13;;
17175;SDS011;8703;48.996;9.594;2023-05-03T09:34:00;10.33;;;8.70;;
17175;SDS011;8703;48.996;9.594;2023-05-03T09:36:31;10.00;;;8.77;;
17175;SDS011;8703;48.996;9.594;2023-05-03T09:39:16;14.27;;;8.70;;
17175;SDS011;8703;48.996;9.594;2023-05-03T09:41:44;9.70;;;8.13;;
17175;SDS011;8703;48.996;9.594;2023-05-03T09:44:11;10.27;;;8.52;;
17175;SDS011;8703;48.996;9.594;2023-05-03T09:46:38;10.57;;;8.20;;
17175;SDS011;8703;48.996;9.594;2023-05-03T09:49:06;8.60;;;7.60;;
17175;SDS011;8703;48.996;9.594;2023-05-03T09:51:33;12.67;;;7.77;;
17175;SDS011;8703;48.996;9.594;2023-05-03T09:54:01;9.40;;;8.40;;
17175;SDS011;8703;48.996;9.594;2023-05-03T09:56:30;10.63;;;8.48;;
17175;SDS011;8703;48.996;9.594;2023-05-03T09:58:57;9.20;;;7.90;;
17175;SDS011;8703;48.996;9.594;2023-05-03T10:01:25;11.30;;;8.02;;
17175;SDS011;8703;48.996;9.594;2023-05-03T10:03:52;8.90;;;7.93;;
17175;SDS011;8703;48.996;9.594;2023-05-03T10:06:23;9.32;;;7.40;;
17175;SDS011;8703;48.996;9.594;2023-05-03T10:08:52;9.10;;;8.18;;
17175;SDS011;8703;48.996;9.594;2023-05-03T10:11:22;10.73;;;8.15;;
17175;SDS011;8703;48.996;9.594;2023-05-03T10:13:53;10.15;;;8.00;;
17175;SDS011;8703;48.996;9.594;2023-05-03T10:16:22;8.43;;;7.43;;
17175;SDS011;8703;48.996;9.594;2023-05-03T10:18:53;10.45;;;9.35;;
17175;SDS011;8703;48.996;9.594;2023-05-03T10:21:25;8.15;;;7.20;;
17175;SDS011;8703;48.996;9.594;2023-05-03T10:24:08;8.13;;;7.20;;
17175;SDS011;8703;48.996;9.594;2023-05-03T10:26:36;8.55;;;6.82;;
17175;SDS011;8703;48.996;9.594;2023-05-03T10:32:34;14.35;;;11.15;;
17175;SDS011;8703;48.996;9.594;2023-05-03T10:35:05;13.13;;;6.65;;
17175;SDS011;8703;48.996;9.594;2023-05-03T10:37:34;8.48;;;6.68;;
17175;SDS011;8703;48.996;9.594;2023-05-03T10:40:05;7.50;;;6.28;;
17175;SDS011;8703;48.996;9.594;2023-05-03T10:42:35;7.20;;;5.85;;
17175;SDS011;8703;48.996;9.594;2023-05-03T10:45:05;6.15;;;5.32;;
17175;SDS011;8703;48.996;9.594;2023-05-03T10:47:34;9.57;;;7.30;;
17175;SDS011;8703;48.996;9.594;2023-05-03T10:52:51;7.18;;;6.05;;
17175;SDS011;8703;48.996;9.594;2023-05-03T10:55:19;7.60;;;5.70;;
17175;SDS011;8703;48.996;9.594;2023-05-03T10:57:49;7.72;;;5.22;;
17175;SDS011;8703;48.996;9.594;2023-05-03T11:00:23;7.05;;;5.55;;
17175;SDS011;8703;48.996;9.594;2023-05-03T11:03:03;7.18;;;4.93;;
17175;SDS011;8703;48.996;9.594;2023-05-03T11:05:35;7.28;;;5.90;;
17175;SDS011;8703;48.996;9.594;2023-05-03T11:08:07;6.03;;;5.20;;
17175;SDS011;8703;48.996;9.594;2023-05-03T11:10:35;7.95;;;4.75;;
17175;SDS011;8703;48.996;9.594;2023-05-03T11:13:02;5.03;;;4.10;;
17175;SDS011;8703;48.996;9.594;2023-05-03T11:15:32;5.07;;;4.20;;
17175;SDS011;8703;48.996;9.594;2023-05-03T11:17:59;8.57;;;5.85;;
17175;SDS011;8703;48.996;9.594;2023-05-03T11:20:27;5.78;;;4.97;;
17175;SDS011;8703;48.996;9.594;2023-05-03T11:22:54;4.97;;;4.28;;
17175;SDS011;8703;48.996;9.594;2023-05-03T11:25:22;6.30;;;4.47;;
17175;SDS011;8703;48.996;9.594;2023-05-03T11:27:49;5.60;;;4.50;;
17175;SDS011;8703;48.996;9.594;2023-05-03T11:30:17;4.22;;;3.80;;
17175;SDS011;8703;48.996;9.594;2023-05-03T11:32:46;4.88;;;4.25;;
17175;SDS011;8703;48.996;9.594;2023-05-03T11:35:13;5.65;;;4.30;;
17175;SDS011;8703;48.996;9.594;2023-05-03T11:37:42;5.63;;;4.32;;
17175;SDS011;8703;48.996;9.594;2023-05-03T11:40:13;5.30;;;4.32;;
17175;SDS011;8703;48.996;9.594;2023-05-03T11:42:49;5.10;;;4.60;;
17175;SDS011;8703;48.996;9.594;2023-05-03T11:45:17;5.50;;;4.45;;
17175;SDS011;8703;48.996;9.594;2023-05-03T11:47:47;5.72;;;4.68;;
17175;SDS011;8703;48.996;9.594;2023-05-03T11:50:15;5.43;;;4.82;;
17175;SDS011;8703;48.996;9.594;2023-05-03T11:52:43;5.70;;;4.70;;
17175;SDS011;8703;48.996;9.594;2023-05-03T11:55:11;5.57;;;4.88;;
17175;SDS011;8703;48.996;9.594;2023-05-03T11:57:38;5.43;;;4.55;;
17175;SDS011;8703;48.996;9.594;2023-05-03T12:00:09;5.80;;;5.10;;
17175;SDS011;8703;48.996;9.594;2023-05-03T12:02:41;5.95;;;5.10;;
17175;SDS011;8703;48.996;9.594;2023-05-03T12:05:10;5.40;;;4.35;;
17175;SDS011;8703;48.996;9.594;2023-05-03T12:07:37;5.97;;;4.57;;
17175;SDS011;8703;48.996;9.594;2023-05-03T12:10:12;4.43;;;3.90;;
17175;SDS011;8703;48.996;9.594;2023-05-03T12:12:50;5.15;;;4.20;;
17175;SDS011;8703;48.996;9.594;2023-05-03T12:15:25;4.20;;;3.80;;
17175;SDS011;8703;48.996;9.594;2023-05-03T12:17:54;4.90;;;4.10;;
17175;SDS011;8703;48.996;9.594;2023-05-03T12:20:24;5.10;;;4.60;;
17175;SDS011;8703;48.996;9.594;2023-05-03T12:22:55;4.78;;;4.03;;
17175;SDS011;8703;48.996;9.594;2023-05-03T12:25:25;4.63;;;4.05;;
17175;SDS011;8703;48.996;9.594;2023-05-03T12:27:53;4.93;;;3.67;;
17175;SDS011;8703;48.996;9.594;2023-05-03T12:30:21;4.50;;;3.30;;
17175;SDS011;8703;48.996;9.594;2023-05-03T12:32:49;7.47;;;3.60;;
17175;SDS011;8703;48.996;9.594;2023-05-03T12:35:16;4.70;;;4.13;;
17175;SDS011;8703;48.996;9.594;2023-05-03T12:37:47;4.05;;;3.65;;
17175;SDS011;8703;48.996;9.594;2023-05-03T12:40:15;4.60;;;4.15;;
17175;SDS011;8703;48.996;9.594;2023-05-03T12:42:43;6.25;;;3.75;;
17175;SDS011;8703;48.996;9.594;2023-05-03T12:45:11;4.03;;;3.67;;
17175;SDS011;8703;48.996;9.594;2023-05-03T12:47:38;4.47;;;3.75;;
17175;SDS011;8703;48.996;9.594;2023-05-03T12:50:06;4.40;;;3.80;;
17175;SDS011;8703;48.996;9.594;2023-05-03T12:52:35;4.93;;;3.90;;
17175;SDS011;8703;48.996;9.594;2023-05-03T12:55:04;4.25;;;3.08;;
17175;SDS011;8703;48.996;9.594;2023-05-03T12:57:33;5.13;;;4.03;;
17175;SDS011;8703;48.996;9.594;2023-05-03T13:00:01;4.00;;;3.63;;
17175;SDS011;8703;48.996;9.594;2023-05-03T13:02:29;4.60;;;3.70;;
17175;SDS011;8703;48.996;9.594;2023-05-03T13:04:57;4.20;;;3.65;;
17175;SDS011;8703;48.996;9.594;2023-05-03T13:07:24;4.00;;;3.60;;
17175;SDS011;8703;48.996;9.594;2023-05-03T13:09:52;3.30;;;3.00;;
17175;SDS011;8703;48.996;9.594;2023-05-03T13:12:21;3.65;;;2.60;;
17175;SDS011;8703;48.996;9.594;2023-05-03T13:14:50;5.15;;;3.28;;
17175;SDS011;8703;48.996;9.594;2023-05-03T13:17:19;3.03;;;2.72;;
17175;SDS011;8703;48.996;9.594;2023-05-03T13:19:47;4.18;;;3.10;;
17175;SDS011;8703;48.996;9.594;2023-05-03T13:22:15;3.05;;;2.75;;
17175;SDS011;8703;48.996;9.594;2023-05-03T13:24:43;3.78;;;3.05;;
17175;SDS011;8703;48.996;9.594;2023-05-03T13:27:11;5.30;;;3.20;;
17175;SDS011;8703;48.996;9.594;2023-05-03T13:29:40;3.67;;;2.90;;
17175;SDS011;8703;48.996;9.594;2023-05-03T13:32:07;3.17;;;2.88;;
17175;SDS011;8703;48.996;9.594;2023-05-03T13:34:36;3.42;;;2.65;;
17175;SDS011;8703;48.996;9.594;2023-05-03T13:37:03;3.22;;;2.92;;
17175;SDS011;8703;48.996;9.594;2023-05-03T13:39:31;3.22;;;2.90;;
17175;SDS011;8703;48.996;9.594;2023-05-03T13:41:58;3.40;;;3.10;;
17175;SDS011;8703;48.996;9.594;2023-05-03T13:44:26;3.30;;;3.00;;
17175;SDS011;8703;48.996;9.594;2023-05-03T13:46:55;4.32;;;3.40;;
17175;SDS011;8703;48.996;9.594;2023-05-03T13:49:23;4.05;;;3.15;;
17175;SDS011;8703;48.996;9.594;2023-05-03T13:51:50;3.35;;;2.95;;
17175;SDS011;8703;48.996;9.594;2023-05-03T13:54:18;3.30;;;2.75;;
17175;SDS011;8703;48.996;9.594;2023-05-03T13:56:45;3.72;;;3.30;;
17175;SDS011;8703;48.996;9.594;2023-05-03T13:59:13;3.47;;;3.17;;
17175;SDS011;8703;48.996;9.594;2023-05-03T14:01:41;4.35;;;3.35;;
17175;SDS011;8703;48.996;9.594;2023-05-03T14:04:09;4.05;;;3.65;;
17175;SDS011;8703;48.996;9.594;2023-05-03T14:06:37;4.20;;;3.80;;
17175;SDS011;8703;48.996;9.594;2023-05-03T14:09:04;3.95;;;3.60;;
17175;SDS011;8703;48.996;9.594;2023-05-03T14:11:32;6.43;;;3.63;;
17175;SDS011;8703;48.996;9.594;2023-05-03T14:14:00;4.00;;;3.60;;
17175;SDS011;8703;48.996;9.594;2023-05-03T14:16:27;5.05;;;4.10;;
17175;SDS011;8703;48.996;9.594;2023-05-03T14:18:55;5.78;;;3.58;;
17175;SDS011;8703;48.996;9.594;2023-05-03T14:21:23;4.47;;;3.47;;
17175;SDS011;8703;48.996;9.594;2023-05-03T14:23:53;2.92;;;2.50;;
17175;SDS011;8703;48.996;9.594;2023-05-03T14:26:20;3.45;;;3.15;;
17175;SDS011;8703;48.996;9.594;2023-05-03T14:28:48;5.95;;;3.60;;
17175;SDS011;8703;48.996;9.594;2023-05-03T14:31:15;5.75;;;4.38;;
17175;SDS011;8703;48.996;9.594;2023-05-03T14:33:42;4.50;;;3.90;;
17175;SDS011;8703;48.996;9.594;2023-05-03T14:36:10;4.93;;;3.38;;
17175;SDS011;8703;48.996;9.594;2023-05-03T14:38:38;4.22;;;3.50;;
17175;SDS011;8703;48.996;9.594;2023-05-03T14:41:06;3.28;;;2.97;;
17175;SDS011;8703;48.996;9.594;2023-05-03T14:43:33;4.82;;;3.03;;
17175;SDS011;8703;48.996;9.594;2023-05-03T14:46:02;3.90;;;3.17;;
17175;SDS011;8703;48.996;9.594;2023-05-03T14:48:29;6.10;;;4.40;;
17175;SDS011;8703;48.996;9.594;2023-05-03T14:50:56;5.82;;;3.50;;
17175;SDS011;8703;48.996;9.594;2023-05-03T14:53:24;5.30;;;3.30;;
17175;SDS011;8703;48.996;9.594;2023-05-03T14:55:54;3.58;;;3.28;;
17175;SDS011;8703;48.996;9.594;2023-05-03T14:58:21;4.97;;;4.05;;
17175;SDS011;8703;48.996;9.594;2023-05-03T15:00:49;6.65;;;3.88;;
17175;SDS011;8703;48.996;9.594;2023-05-03T15:03:16;4.40;;;3.88;;
17175;SDS011;8703;48.996;9.594;2023-05-03T15:05:44;4.15;;;3.70;;